createdAt,value
2023-03-27T00:02:10.733Z,91
2023-03-27T00:12:10.660Z,91
2023-03-27T00:22:10.622Z,91
2023-03-27T00:32:10.649Z,91
2023-03-27T00:42:10.648Z,91
2023-03-27T00:52:10.607Z,91
2023-03-27T01:02:10.644Z,91
2023-03-27T01:12:10.596Z,91
2023-03-27T01:22:10.566Z,91
2023-03-27T01:32:10.614Z,91
2023-03-27T01:42:10.592Z,91
2023-03-27T01:52:10.573Z,91
2023-03-27T02:02:10.598Z,91
2023-03-27T02:12:10.599Z,91
2023-03-27T02:22:10.543Z,91
2023-03-27T02:32:10.566Z,92
2023-03-27T02:42:10.544Z,92
2023-03-27T02:52:10.514Z,92
2023-03-27T03:02:10.557Z,92
2023-03-27T03:12:10.537Z,92
2023-03-27T03:22:10.478Z,92
2023-03-27T03:32:10.521Z,92
2023-03-27T03:42:10.467Z,92
2023-03-27T03:52:10.494Z,92
2023-03-27T04:02:10.558Z,92
2023-03-27T04:12:10.918Z,92
2023-03-27T04:22:10.455Z,92
2023-03-27T04:32:10.480Z,92
2023-03-27T04:42:10.546Z,92
2023-03-27T04:52:10.452Z,92
2023-03-27T05:02:10.442Z,92
2023-03-27T05:12:10.443Z,92
2023-03-27T05:22:10.840Z,92
2023-03-27T05:32:10.441Z,92
2023-03-27T05:42:10.426Z,92
2023-03-27T05:52:10.388Z,92
2023-03-27T06:02:10.464Z,92
2023-03-27T06:12:10.367Z,92
2023-03-27T06:22:10.352Z,92
2023-03-27T06:32:10.387Z,92
2023-03-27T06:42:10.368Z,92
2023-03-27T06:52:10.342Z,92
2023-03-27T07:02:10.428Z,92
2023-03-27T07:12:10.303Z,92
2023-03-27T07:22:10.538Z,92
2023-03-27T07:42:10.773Z,93
2023-03-27T07:52:10.307Z,93
2023-03-27T08:02:10.346Z,93
2023-03-27T08:12:10.311Z,93
2023-03-27T08:22:10.270Z,93
2023-03-27T08:32:10.291Z,93
2023-03-27T08:42:10.723Z,93
2023-03-27T08:52:10.272Z,93
2023-03-27T09:02:10.321Z,93
2023-03-27T09:12:10.243Z,94
2023-03-27T09:22:10.657Z,93
2023-03-27T09:32:10.275Z,92
2023-03-27T09:42:10.211Z,91
2023-03-27T09:52:10.194Z,89
2023-03-27T10:02:10.207Z,88
2023-03-27T10:12:10.180Z,87
2023-03-27T10:22:14.273Z,86
2023-03-27T10:32:10.212Z,83
2023-03-27T10:42:10.153Z,80
2023-03-27T10:52:10.120Z,78
2023-03-27T11:02:10.152Z,77
2023-03-27T11:12:10.125Z,75
2023-03-27T11:22:10.094Z,74
2023-03-27T11:32:10.097Z,74
2023-03-27T11:42:10.103Z,73
2023-03-27T11:52:10.075Z,73
2023-03-27T12:02:10.172Z,72
2023-03-27T12:12:10.068Z,72
2023-03-27T12:22:21.060Z,72
2023-03-27T12:32:10.113Z,71
2023-03-27T12:42:10.024Z,70
2023-03-27T12:52:10.004Z,69
2023-03-27T13:02:10.118Z,67
2023-03-27T13:12:10.004Z,65
2023-03-27T13:22:09.974Z,64
2023-03-27T13:32:09.968Z,64
2023-03-27T13:42:09.977Z,64
2023-03-27T13:52:09.926Z,65
2023-03-27T14:02:10.019Z,64
2023-03-27T14:12:10.369Z,64
2023-03-27T14:22:09.892Z,64
2023-03-27T14:32:09.932Z,64
2023-03-27T14:42:10.319Z,64
2023-03-27T14:52:09.866Z,64
2023-03-27T15:02:09.902Z,63
2023-03-27T15:12:10.336Z,63
2023-03-27T15:22:09.827Z,63
2023-03-27T15:32:09.860Z,63
2023-03-27T15:42:09.841Z,63
2023-03-27T15:52:10.934Z,63
2023-03-27T16:02:09.850Z,63
2023-03-27T16:12:09.840Z,63
2023-03-27T16:22:09.779Z,63
2023-03-27T16:32:09.797Z,62
2023-03-27T16:42:09.800Z,63
2023-03-27T16:52:09.735Z,63
2023-03-27T17:02:09.757Z,63
2023-03-27T17:12:10.168Z,64
2023-03-27T17:22:09.718Z,64
2023-03-27T17:32:09.800Z,63
2023-03-27T17:42:10.147Z,63
2023-03-27T17:52:09.686Z,63
2023-03-27T18:02:09.750Z,63
2023-03-27T18:12:09.707Z,64
2023-03-27T18:22:10.085Z,63
2023-03-27T18:32:09.695Z,63
2023-03-27T18:42:09.703Z,63
2023-03-27T18:52:09.643Z,63
2023-03-27T19:02:09.721Z,63
2023-03-27T19:12:09.675Z,63
2023-03-27T19:22:09.594Z,63
2023-03-27T19:32:09.634Z,63
2023-03-27T19:42:09.613Z,64
2023-03-27T19:52:09.586Z,64
2023-03-27T20:02:10.026Z,64
2023-03-27T20:12:09.610Z,64
2023-03-27T20:22:09.558Z,64
2023-03-27T20:32:09.585Z,64
2023-03-27T20:42:10.029Z,64
2023-03-27T20:52:09.527Z,65
2023-03-27T21:02:09.994Z,65
2023-03-27T21:12:09.555Z,65
2023-03-27T21:22:09.524Z,65
2023-03-27T21:32:09.549Z,65
2023-03-27T21:42:09.529Z,65
2023-03-27T21:52:09.472Z,65
2023-03-27T22:02:09.452Z,65
2023-03-27T22:12:09.496Z,65
2023-03-27T22:22:09.455Z,65
2023-03-27T22:32:09.607Z,65
2023-03-27T22:42:09.483Z,65
2023-03-27T22:52:09.448Z,65
2023-03-27T23:02:09.560Z,65
2023-03-27T23:12:09.458Z,65
2023-03-27T23:22:09.846Z,65
2023-03-27T23:32:09.518Z,65
2023-03-27T23:42:09.434Z,65
2023-03-27T23:52:09.385Z,66
